createdAt,value
2023-09-28T00:01:39.791Z,101307.23
2023-09-28T00:04:08.442Z,101307.92
2023-09-28T00:06:36.921Z,101307.23
2023-09-28T00:09:05.276Z,101308.19
2023-09-28T00:11:33.264Z,101309.23
2023-09-28T00:14:01.388Z,101308.33
2023-09-28T00:16:30.522Z,101308.01
2023-09-28T00:18:58.591Z,101307.38
2023-09-28T00:21:27.614Z,101305.02
2023-09-28T00:23:55.930Z,101301.35
2023-09-28T00:26:24.043Z,101303.10
2023-09-28T00:28:52.444Z,101304.25
2023-09-28T00:31:20.929Z,101301.88
2023-09-28T00:33:49.857Z,101305.75
2023-09-28T00:36:18.226Z,101299.77
2023-09-28T00:38:48.943Z,101300.45
2023-09-28T00:41:16.926Z,101299.20
2023-09-28T00:43:46.027Z,101295.54
2023-09-28T00:46:17.903Z,101294.70
2023-09-28T00:49:03.777Z,101293.00
2023-09-28T00:51:34.232Z,101294.43
2023-09-28T00:54:04.464Z,101290.52
2023-09-28T00:56:33.359Z,101287.29
2023-09-28T00:59:01.644Z,101289.14
2023-09-28T01:01:30.781Z,101283.64
2023-09-28T01:04:04.641Z,101284.90
2023-09-28T01:06:36.384Z,101286.45
2023-09-28T01:09:11.313Z,101285.96
2023-09-28T01:11:41.843Z,101283.42
2023-09-28T01:14:10.538Z,101278.69
2023-09-28T01:16:40.461Z,101280.54
2023-09-28T01:19:10.402Z,101280.24
2023-09-28T01:21:38.516Z,101277.83
2023-09-28T01:24:07.614Z,101276.96
2023-09-28T01:26:35.802Z,101274.38
2023-09-28T01:29:03.756Z,101275.05
2023-09-28T01:31:33.827Z,101271.13
2023-09-28T01:34:02.085Z,101267.50
2023-09-28T01:36:30.077Z,101262.79
2023-09-28T01:39:03.607Z,101264.14
2023-09-28T01:41:32.037Z,101264.00
2023-09-28T01:44:00.131Z,101260.98
2023-09-28T01:46:28.258Z,101264.02
2023-09-28T01:48:56.220Z,101259.25
2023-09-28T01:51:24.340Z,101259.91
2023-09-28T01:53:52.603Z,101255.08
2023-09-28T01:56:22.546Z,101252.08
2023-09-28T01:58:50.878Z,101250.55
2023-09-28T02:01:24.025Z,101249.98
2023-09-28T02:03:52.572Z,101252.17
2023-09-28T02:06:20.711Z,101249.95
2023-09-28T02:08:48.654Z,101252.73
2023-09-28T02:11:17.170Z,101253.20
2023-09-28T02:13:45.919Z,101254.13
2023-09-28T02:16:14.550Z,101247.95
2023-09-28T02:18:44.834Z,101249.54
2023-09-28T02:21:16.269Z,101247.64
2023-09-28T02:23:45.215Z,101247.95
2023-09-28T02:26:13.300Z,101244.08
2023-09-28T02:28:41.481Z,101249.89
2023-09-28T02:31:10.060Z,101249.95
2023-09-28T02:33:38.019Z,101244.54
2023-09-28T02:36:06.484Z,101252.25
2023-09-28T02:38:34.700Z,101250.70
2023-09-28T02:41:02.750Z,101252.48
2023-09-28T02:43:30.850Z,101254.01
2023-09-28T02:45:58.743Z,101258.46
2023-09-28T02:48:26.579Z,101255.17
2023-09-28T02:50:54.585Z,101257.70
2023-09-28T02:53:23.168Z,101256.37
2023-09-28T02:55:52.764Z,101254.35
2023-09-28T02:58:23.322Z,101250.83
2023-09-28T03:00:52.204Z,101248.67
2023-09-28T03:03:20.400Z,101250.39
2023-09-28T03:05:48.407Z,101248.90
2023-09-28T03:08:16.535Z,101251.48
2023-09-28T03:10:45.731Z,101250.91
2023-09-28T03:13:13.838Z,101253.20
2023-09-28T03:15:47.894Z,101251.27
2023-09-28T03:18:17.607Z,101255.04
2023-09-28T03:20:49.318Z,101256.70
2023-09-28T03:23:17.791Z,101256.52
2023-09-28T03:25:47.229Z,101254.22
2023-09-28T03:28:16.300Z,101252.27
2023-09-28T03:30:44.777Z,101252.34
2023-09-28T03:33:12.745Z,101251.88
2023-09-28T03:35:40.716Z,101249.63
2023-09-28T03:38:08.701Z,101249.34
2023-09-28T03:40:36.957Z,101249.27
2023-09-28T03:43:05.396Z,101248.75
2023-09-28T03:45:34.901Z,101248.19
2023-09-28T03:48:03.265Z,101250.27
2023-09-28T03:50:31.323Z,101252.72
2023-09-28T03:52:59.407Z,101255.09
2023-09-28T03:55:27.358Z,101252.56
2023-09-28T03:57:55.333Z,101251.31
2023-09-28T04:00:23.607Z,101251.05
2023-09-28T04:02:55.256Z,101247.66
2023-09-28T04:05:25.469Z,101243.30
2023-09-28T04:07:54.485Z,101243.50
2023-09-28T04:10:24.675Z,101246.84
2023-09-28T04:12:54.763Z,101240.35
2023-09-28T04:15:26.149Z,101238.48
2023-09-28T04:17:54.744Z,101233.98
2023-09-28T04:20:22.934Z,101236.94
2023-09-28T04:22:51.331Z,101230.94
2023-09-28T04:25:21.474Z,101236.62
2023-09-28T04:27:51.425Z,101231.94
2023-09-28T04:30:22.629Z,101233.10
2023-09-28T04:32:55.826Z,101228.00
2023-09-28T04:35:24.245Z,101227.77
2023-09-28T04:37:52.165Z,101230.52
2023-09-28T04:40:25.848Z,101231.89
2023-09-28T04:42:56.211Z,101230.27
2023-09-28T04:45:24.362Z,101233.41
2023-09-28T04:47:52.267Z,101230.57
2023-09-28T04:50:20.493Z,101231.92
2023-09-28T04:52:48.598Z,101235.81
2023-09-28T04:55:16.845Z,101237.30
2023-09-28T04:57:45.943Z,101240.04
2023-09-28T05:00:17.702Z,101240.53
2023-09-28T05:02:49.396Z,101237.85
2023-09-28T05:05:18.236Z,101241.05
2023-09-28T05:07:46.537Z,101241.76
2023-09-28T05:10:14.607Z,101237.33
2023-09-28T05:12:42.602Z,101240.80
2023-09-28T05:15:11.259Z,101240.47
2023-09-28T05:17:39.408Z,101235.23
2023-09-28T05:20:09.469Z,101235.94
2023-09-28T05:22:37.541Z,101236.73
2023-09-28T05:25:07.969Z,101233.19
2023-09-28T05:27:35.868Z,101229.95
2023-09-28T05:30:05.983Z,101234.72
2023-09-28T05:32:34.192Z,101228.65
2023-09-28T05:35:03.831Z,101230.17
2023-09-28T05:37:32.209Z,101233.36
2023-09-28T05:40:01.253Z,101236.30
2023-09-28T05:42:29.153Z,101236.69
2023-09-28T05:44:57.257Z,101238.81
2023-09-28T05:47:25.210Z,101237.41
2023-09-28T05:49:53.651Z,101236.60
2023-09-28T05:52:23.768Z,101235.20
2023-09-28T05:54:51.910Z,101236.98
2023-09-28T05:57:22.313Z,101237.83
2023-09-28T05:59:51.255Z,101239.35
2023-09-28T06:02:22.075Z,101236.74
2023-09-28T06:04:52.174Z,101236.02
2023-09-28T06:07:20.217Z,101236.86
2023-09-28T06:09:48.563Z,101239.14
2023-09-28T06:12:16.706Z,40494.59
2023-09-28T06:14:44.819Z,20246.25
2023-09-28T06:17:12.817Z,101241.15
2023-09-28T06:19:51.443Z,101236.92
2023-09-28T06:22:25.844Z,101234.74
2023-09-28T06:24:53.875Z,101233.79
2023-09-28T06:27:21.661Z,101237.85
2023-09-28T06:29:54.524Z,101237.25
2023-09-28T06:32:23.959Z,101241.07
2023-09-28T06:34:52.388Z,101244.86
2023-09-28T06:37:20.730Z,101243.77
2023-09-28T06:39:48.633Z,101241.17
2023-09-28T06:42:34.542Z,101242.05
2023-09-28T06:45:05.614Z,101237.73
2023-09-28T06:47:46.594Z,101244.36
2023-09-28T06:50:22.902Z,101246.15
2023-09-28T06:52:52.940Z,101246.86
2023-09-28T06:55:23.645Z,101244.38
2023-09-28T06:57:52.248Z,101250.65
2023-09-28T07:00:20.448Z,101250.42
2023-09-28T07:02:48.790Z,101248.45
2023-09-28T07:05:18.380Z,101248.77
2023-09-28T07:07:47.485Z,101246.23
2023-09-28T07:10:15.967Z,101248.91
2023-09-28T07:12:43.842Z,-1.00
2023-09-28T07:15:12.741Z,-1.00
2023-09-28T07:17:41.051Z,-1.00
2023-09-28T07:20:10.588Z,-1.00
2023-09-28T07:22:39.421Z,-1.00
2023-09-28T07:25:08.233Z,-1.00
2023-09-28T07:27:36.017Z,-1.00
2023-09-28T07:30:09.647Z,-1.00
2023-09-28T07:32:37.747Z,-1.00
2023-09-28T07:35:06.147Z,-1.00
2023-09-28T07:37:33.998Z,-1.00
2023-09-28T07:40:02.734Z,-1.00
2023-09-28T07:42:32.020Z,-1.00
2023-09-28T07:44:59.866Z,-1.00
2023-09-28T07:47:27.984Z,101257.85
2023-09-28T07:49:55.990Z,101256.36
2023-09-28T07:52:24.427Z,101260.98
2023-09-28T07:54:52.417Z,101260.79
2023-09-28T07:57:20.447Z,101262.67
2023-09-28T07:59:48.323Z,101256.10
2023-09-28T08:02:16.314Z,101257.17
2023-09-28T08:04:44.211Z,101257.95
2023-09-28T08:07:13.008Z,101253.77
2023-09-28T08:09:40.907Z,101258.18
2023-09-28T08:12:10.094Z,101262.98
2023-09-28T08:14:38.263Z,101261.13
2023-09-28T08:17:07.501Z,101258.95
2023-09-28T08:19:35.729Z,101258.55
2023-09-28T08:22:06.882Z,101257.13
2023-09-28T08:24:34.898Z,101263.24
2023-09-28T08:27:05.340Z,101268.40
2023-09-28T08:29:35.126Z,101272.12
2023-09-28T08:32:03.265Z,101273.35
2023-09-28T08:34:39.620Z,101268.63
2023-09-28T08:37:07.926Z,101268.05
2023-09-28T08:39:39.865Z,101265.06
2023-09-28T08:42:13.678Z,101260.42
2023-09-28T08:44:41.949Z,101263.84
2023-09-28T08:47:17.800Z,101262.04
2023-09-28T08:49:51.745Z,101259.77
2023-09-28T08:52:20.688Z,101263.73
2023-09-28T08:54:49.737Z,101258.77
2023-09-28T08:57:17.800Z,101257.02
2023-09-28T08:59:47.595Z,101251.67
2023-09-28T09:02:17.257Z,101248.41
2023-09-28T09:04:46.653Z,101248.85
2023-09-28T09:07:15.302Z,101247.52
2023-09-28T09:09:47.651Z,101243.84
2023-09-28T09:12:16.327Z,101245.90
2023-09-28T09:14:44.171Z,101242.70
2023-09-28T09:17:13.569Z,101240.41
2023-09-28T09:19:43.088Z,101241.18
2023-09-28T09:22:26.619Z,101239.82
2023-09-28T09:25:01.846Z,101242.86
2023-09-28T09:27:33.504Z,101242.94
2023-09-28T09:30:09.768Z,101239.23
2023-09-28T09:32:40.434Z,101236.68
2023-09-28T09:35:09.093Z,101232.56
2023-09-28T09:37:42.967Z,101236.40
2023-09-28T09:40:14.926Z,101232.39
2023-09-28T09:42:43.358Z,101226.53
2023-09-28T09:45:13.396Z,101225.53
2023-09-28T09:47:46.897Z,101228.77
2023-09-28T09:50:15.966Z,101225.86
2023-09-28T09:52:45.687Z,101227.30
2023-09-28T09:55:14.039Z,101221.45
2023-09-28T09:57:43.861Z,101216.91
2023-09-28T10:00:17.471Z,101213.60
2023-09-28T10:02:48.917Z,101211.54
2023-09-28T10:05:19.464Z,101212.37
2023-09-28T10:07:49.153Z,101208.14
2023-09-28T10:10:20.563Z,101208.67
2023-09-28T10:12:49.248Z,101214.38
2023-09-28T10:15:18.529Z,101214.30
2023-09-28T10:17:47.199Z,101213.10
2023-09-28T10:20:16.233Z,101218.34
2023-09-28T10:22:48.646Z,101215.44
2023-09-28T10:25:17.666Z,101219.46
2023-09-28T10:27:48.525Z,101222.05
2023-09-28T10:30:23.619Z,101224.84
2023-09-28T10:32:52.710Z,101227.00
2023-09-28T10:35:21.422Z,101229.10
2023-09-28T10:38:19.214Z,101234.11
2023-09-28T10:41:04.044Z,101240.30
2023-09-28T10:43:44.478Z,101239.70
2023-09-28T10:46:13.791Z,101242.40
2023-09-28T10:48:43.651Z,101234.36
2023-09-28T10:51:19.075Z,101232.92
2023-09-28T10:53:47.381Z,101232.56
2023-09-28T10:56:15.466Z,101232.46
2023-09-28T10:58:44.217Z,101233.55
2023-09-28T11:01:12.374Z,101233.55
2023-09-28T11:03:41.027Z,101235.81
2023-09-28T11:06:11.501Z,101237.89
2023-09-28T11:08:40.855Z,101241.00
2023-09-28T11:11:09.986Z,101238.15
2023-09-28T11:13:38.879Z,101235.33
2023-09-28T11:16:07.148Z,101225.92
2023-09-28T11:18:35.112Z,101220.52
2023-09-28T11:21:04.727Z,101224.23
2023-09-28T11:23:32.900Z,101220.02
2023-09-28T11:26:00.905Z,101221.69
2023-09-28T11:28:31.010Z,101220.45
2023-09-28T11:31:13.342Z,101210.35
2023-09-28T11:33:43.661Z,101203.90
2023-09-28T11:36:22.929Z,101198.47
2023-09-28T11:38:53.850Z,101197.09
2023-09-28T11:41:24.456Z,101192.45
2023-09-28T11:43:53.571Z,101191.17
2023-09-28T11:46:24.634Z,101190.63
2023-09-28T11:49:11.313Z,101195.33
2023-09-28T11:51:40.597Z,101197.33
2023-09-28T11:54:11.028Z,101190.09
2023-09-28T11:56:41.383Z,101187.09
2023-09-28T11:59:10.884Z,101178.35
2023-09-28T12:01:39.299Z,101172.02
2023-09-28T12:04:09.267Z,101167.29
2023-09-28T12:06:38.644Z,101166.20
2023-09-28T12:09:07.588Z,101163.06
2023-09-28T12:11:39.255Z,101166.30
2023-09-28T12:14:09.133Z,101166.34
2023-09-28T12:16:37.284Z,101170.65
2023-09-28T12:19:05.665Z,101165.48
2023-09-28T12:21:33.666Z,101169.39
2023-09-28T12:24:01.889Z,101170.63
2023-09-28T12:26:29.940Z,101170.04
2023-09-28T12:28:58.752Z,101166.73
2023-09-28T12:31:26.763Z,101163.93
2023-09-28T12:33:56.376Z,101162.59
2023-09-28T12:36:24.553Z,101160.36
2023-09-28T12:38:53.361Z,101158.06
2023-09-28T12:41:21.596Z,101147.85
2023-09-28T12:43:49.471Z,101151.09
2023-09-28T12:46:17.676Z,101160.41
2023-09-28T12:48:46.565Z,101163.27
2023-09-28T12:51:15.412Z,101162.71
2023-09-28T12:53:43.320Z,101161.64
2023-09-28T12:56:11.426Z,101155.89
2023-09-28T12:58:39.606Z,101152.87
2023-09-28T13:01:07.553Z,101150.13
2023-09-28T13:03:35.620Z,101147.23
2023-09-28T13:06:03.758Z,101142.51
2023-09-28T13:08:32.813Z,101141.45
2023-09-28T13:11:00.807Z,101141.30
2023-09-28T13:13:28.635Z,101134.80
2023-09-28T13:15:56.671Z,101133.91
2023-09-28T13:18:25.080Z,101129.36
2023-09-28T13:20:53.652Z,101136.69
2023-09-28T13:23:21.622Z,101139.19
2023-09-28T13:25:50.398Z,101137.25
2023-09-28T13:28:18.589Z,101137.52
2023-09-28T13:30:48.710Z,101133.42
2023-09-28T13:33:16.826Z,101133.63
2023-09-28T13:35:44.999Z,101134.54
2023-09-28T13:38:13.260Z,101133.02
2023-09-28T13:40:41.457Z,101128.67
2023-09-28T13:43:09.404Z,101129.61
2023-09-28T13:45:38.386Z,101127.48
2023-09-28T13:48:07.304Z,101128.61
2023-09-28T13:50:37.138Z,101122.48
2023-09-28T13:53:05.517Z,101122.09
2023-09-28T13:55:34.502Z,101121.48
2023-09-28T13:58:02.533Z,101122.69
2023-09-28T14:00:41.554Z,101121.98
2023-09-28T14:03:10.635Z,101121.08
2023-09-28T14:05:39.481Z,101120.63
2023-09-28T14:08:09.776Z,101117.27
2023-09-28T14:10:38.290Z,101114.61
2023-09-28T14:13:07.041Z,101110.19
2023-09-28T14:15:35.058Z,101114.57
2023-09-28T14:18:03.994Z,101116.08
2023-09-28T14:20:37.258Z,101118.23
2023-09-28T14:23:05.260Z,101118.73
2023-09-28T14:25:33.112Z,101115.80
2023-09-28T14:28:01.432Z,101112.42
2023-09-28T14:30:29.385Z,101108.52
2023-09-28T14:32:57.620Z,101114.54
2023-09-28T14:35:25.676Z,101111.55
2023-09-28T14:37:53.696Z,101112.89
2023-09-28T14:40:22.337Z,101118.44
2023-09-28T14:42:50.683Z,101118.67
2023-09-28T14:45:19.747Z,101117.46
2023-09-28T14:47:47.740Z,101113.18
2023-09-28T14:50:15.991Z,101116.63
2023-09-28T14:52:44.151Z,101121.19
2023-09-28T14:55:12.210Z,101122.20
2023-09-28T14:57:40.811Z,101126.23
2023-09-28T15:00:13.894Z,101118.48
2023-09-28T15:02:44.621Z,101121.21
2023-09-28T15:05:12.861Z,101122.79
2023-09-28T15:07:40.878Z,101118.60
2023-09-28T15:10:11.097Z,101121.37
2023-09-28T15:12:40.385Z,101122.66
2023-09-28T15:15:08.561Z,101119.92
2023-09-28T15:17:37.165Z,101121.46
2023-09-28T15:20:11.191Z,101123.39
2023-09-28T15:22:39.674Z,101124.77
2023-09-28T15:25:09.868Z,101126.85
2023-09-28T15:27:43.332Z,101131.97
2023-09-28T15:30:16.042Z,101133.94
2023-09-28T15:32:44.928Z,101135.98
2023-09-28T15:35:14.649Z,101135.66
2023-09-28T15:37:43.145Z,101134.98
2023-09-28T15:40:11.277Z,101137.27
2023-09-28T15:42:39.307Z,101138.08
2023-09-28T15:45:12.149Z,101139.48
2023-09-28T15:47:41.619Z,101142.19
2023-09-28T15:50:11.580Z,101142.45
2023-09-28T15:52:39.724Z,101144.60
2023-09-28T15:55:08.054Z,101146.55
2023-09-28T15:57:36.324Z,101148.61
2023-09-28T16:00:11.657Z,101148.92
2023-09-28T16:02:47.763Z,101148.15
2023-09-28T16:05:16.090Z,101141.60
2023-09-28T16:07:44.121Z,101145.48
2023-09-28T16:10:12.563Z,101143.27
2023-09-28T16:12:41.296Z,101150.11
2023-09-28T16:15:09.738Z,101152.44
2023-09-28T16:17:37.763Z,101150.02
2023-09-28T16:20:07.876Z,101145.80
2023-09-28T16:22:35.892Z,101146.29
2023-09-28T16:25:04.189Z,101149.05
2023-09-28T16:27:32.237Z,101152.42
2023-09-28T16:30:00.229Z,101153.94
2023-09-28T16:32:28.820Z,101154.39
2023-09-28T16:34:56.912Z,101156.48
2023-09-28T16:37:24.795Z,101154.11
2023-09-28T16:39:52.585Z,101156.68
2023-09-28T16:42:20.560Z,101158.23
2023-09-28T16:44:48.458Z,101160.22
2023-09-28T16:47:16.407Z,101162.63
2023-09-28T16:49:44.372Z,101158.09
2023-09-28T16:52:13.664Z,101160.64
2023-09-28T16:54:41.579Z,101161.43
2023-09-28T16:57:09.535Z,101163.80
2023-09-28T16:59:37.566Z,101162.91
2023-09-28T17:02:06.640Z,101161.41
2023-09-28T17:04:34.659Z,101163.63
2023-09-28T17:07:02.863Z,101162.77
2023-09-28T17:09:30.696Z,101158.33
2023-09-28T17:11:58.667Z,101165.39
2023-09-28T17:14:26.611Z,101166.58
2023-09-28T17:16:54.524Z,101168.77
2023-09-28T17:19:22.576Z,101172.17
2023-09-28T17:21:51.000Z,101169.63
2023-09-28T17:24:19.820Z,101164.26
2023-09-28T17:26:47.803Z,101167.21
2023-09-28T17:29:15.806Z,101164.56
2023-09-28T17:31:43.715Z,101164.34
2023-09-28T17:34:11.947Z,101168.91
2023-09-28T17:36:40.002Z,101173.40
2023-09-28T17:39:08.003Z,101171.67
2023-09-28T17:41:35.897Z,101168.70
2023-09-28T17:44:03.810Z,101171.21
2023-09-28T17:46:32.423Z,101172.23
2023-09-28T17:49:00.343Z,101170.37
2023-09-28T17:51:33.208Z,101175.14
2023-09-28T17:54:05.888Z,101171.45
2023-09-28T17:56:34.638Z,101169.92
2023-09-28T17:59:02.593Z,101175.08
2023-09-28T18:01:30.537Z,101171.36
2023-09-28T18:03:58.868Z,101172.11
2023-09-28T18:06:26.870Z,101172.59
2023-09-28T18:08:55.074Z,101172.20
2023-09-28T18:11:23.693Z,101171.30
2023-09-28T18:13:51.954Z,101169.60
2023-09-28T18:16:20.220Z,101171.20
2023-09-28T18:18:48.281Z,101175.70
2023-09-28T18:21:16.220Z,101174.86
2023-09-28T18:23:44.708Z,101177.02
2023-09-28T18:26:12.874Z,101177.40
2023-09-28T18:28:42.676Z,101174.80
2023-09-28T18:31:10.639Z,101182.90
2023-09-28T18:33:39.254Z,101185.95
2023-09-28T18:36:07.720Z,101183.89
2023-09-28T18:38:35.709Z,101190.71
2023-09-28T18:41:03.838Z,101189.34
2023-09-28T18:43:33.035Z,101191.23
2023-09-28T18:46:00.943Z,101192.38
2023-09-28T18:48:28.892Z,101195.75
2023-09-28T18:50:56.936Z,101197.39
2023-09-28T18:53:26.918Z,101192.73
2023-09-28T18:55:55.155Z,101195.05
2023-09-28T18:58:23.003Z,101192.02
2023-09-28T19:00:51.013Z,101189.20
2023-09-28T19:03:19.057Z,101190.04
2023-09-28T19:05:47.456Z,101183.79
2023-09-28T19:08:15.494Z,101185.77
2023-09-28T19:10:43.534Z,101187.84
2023-09-28T19:13:11.889Z,101193.91
2023-09-28T19:15:39.743Z,101200.02
2023-09-28T19:18:07.732Z,101196.52
2023-09-28T19:20:35.813Z,101194.34
2023-09-28T19:23:03.975Z,101201.24
2023-09-28T19:25:31.801Z,101200.75
2023-09-28T19:27:59.740Z,101204.47
2023-09-28T19:30:28.157Z,101208.98
2023-09-28T19:32:57.512Z,101212.02
2023-09-28T19:35:25.612Z,101214.33
2023-09-28T19:37:53.548Z,101215.10
2023-09-28T19:40:21.396Z,101214.40
2023-09-28T19:42:49.375Z,101216.85
2023-09-28T19:45:17.663Z,101223.15
2023-09-28T19:47:46.185Z,101223.44
2023-09-28T19:50:14.273Z,101225.83
2023-09-28T19:52:42.201Z,101221.73
2023-09-28T19:55:10.414Z,101217.44
2023-09-28T19:57:38.379Z,101219.14
2023-09-28T20:00:08.880Z,101218.82
2023-09-28T20:02:37.412Z,101219.52
2023-09-28T20:05:07.036Z,101219.02
2023-09-28T20:07:34.973Z,101220.73
2023-09-28T20:10:02.928Z,101220.04
2023-09-28T20:12:30.802Z,101224.46
2023-09-28T20:14:58.954Z,101223.11
2023-09-28T20:17:26.884Z,101221.66
2023-09-28T20:19:55.052Z,101219.85
2023-09-28T20:22:25.035Z,101219.41
2023-09-28T20:24:53.018Z,101220.48
2023-09-28T20:27:20.916Z,101220.54
2023-09-28T20:29:48.912Z,101221.30
2023-09-28T20:32:17.818Z,101220.97
2023-09-28T20:34:45.790Z,101212.30
2023-09-28T20:37:13.752Z,101210.27
2023-09-28T20:39:44.487Z,101209.73
2023-09-28T20:42:12.699Z,101209.75
2023-09-28T20:44:40.716Z,101213.54
2023-09-28T20:47:09.669Z,101212.91
2023-09-28T20:49:37.746Z,101214.58
2023-09-28T20:52:05.729Z,101216.44
2023-09-28T20:54:34.212Z,101219.32
2023-09-28T20:57:02.140Z,101223.08
2023-09-28T20:59:30.140Z,101215.20
2023-09-28T21:01:58.055Z,101211.77
2023-09-28T21:04:26.059Z,101210.62
2023-09-28T21:06:54.309Z,101207.27
2023-09-28T21:09:22.444Z,101206.23
2023-09-28T21:11:55.175Z,101205.27
2023-09-28T21:14:24.323Z,101206.54
2023-09-28T21:16:52.339Z,101208.88
2023-09-28T21:19:20.295Z,101205.17
2023-09-28T21:21:48.392Z,101209.83
2023-09-28T21:24:16.892Z,101206.05
2023-09-28T21:26:45.510Z,101199.71
2023-09-28T21:29:13.821Z,101197.42
2023-09-28T21:31:41.782Z,101195.98
2023-09-28T21:34:10.078Z,101193.35
2023-09-28T21:36:38.908Z,101190.96
2023-09-28T21:39:07.015Z,101192.16
2023-09-28T21:41:35.181Z,101191.63
2023-09-28T21:44:03.255Z,101192.61
2023-09-28T21:46:31.247Z,101191.06
2023-09-28T21:48:59.313Z,101192.84
2023-09-28T21:51:27.248Z,101195.08
2023-09-28T21:53:56.615Z,101188.52
2023-09-28T21:58:54.823Z,101192.36
2023-09-28T22:01:23.309Z,101193.38
2023-09-28T22:03:52.472Z,101196.86
2023-09-28T22:06:20.442Z,101194.80
2023-09-28T22:08:48.289Z,101202.80
2023-09-28T22:11:16.490Z,101205.73
2023-09-28T22:13:44.457Z,101213.61
2023-09-28T22:16:13.738Z,101212.52
2023-09-28T22:18:41.655Z,101219.35
2023-09-28T22:21:11.125Z,101215.48
2023-09-28T22:23:39.207Z,101218.58
2023-09-28T22:26:07.716Z,101213.60
2023-09-28T22:28:35.695Z,101213.80
2023-09-28T22:31:04.919Z,101216.53
2023-09-28T22:33:35.149Z,101218.78
2023-09-28T22:36:03.869Z,101217.84
2023-09-28T22:38:31.814Z,101220.44
2023-09-28T22:41:00.210Z,101221.04
2023-09-28T22:43:28.365Z,101219.99
2023-09-28T22:45:56.473Z,101217.60
2023-09-28T22:48:24.717Z,101216.28
2023-09-28T22:50:53.041Z,101222.04
2023-09-28T22:53:22.100Z,101224.27
2023-09-28T22:55:50.072Z,101222.66
2023-09-28T22:58:17.922Z,101223.89
2023-09-28T23:00:45.822Z,101225.67
2023-09-28T23:03:14.948Z,101226.45
2023-09-28T23:05:44.343Z,101224.30
2023-09-28T23:08:12.887Z,101224.52
2023-09-28T23:10:40.937Z,101227.74
2023-09-28T23:13:08.885Z,101228.11
2023-09-28T23:15:36.834Z,101230.19
2023-09-28T23:18:05.949Z,101230.60
2023-09-28T23:20:34.179Z,101231.73
2023-09-28T23:23:02.280Z,101235.09
2023-09-28T23:25:30.193Z,101233.86
2023-09-28T23:27:58.302Z,101236.92
2023-09-28T23:30:29.261Z,101235.99
2023-09-28T23:32:57.389Z,101239.43
2023-09-28T23:35:25.658Z,101243.63
2023-09-28T23:37:56.013Z,101241.51
2023-09-28T23:40:24.750Z,101240.11
2023-09-28T23:42:54.222Z,101243.34
2023-09-28T23:45:24.488Z,101243.10
2023-09-28T23:47:53.610Z,101247.44
2023-09-28T23:50:24.185Z,101242.98
2023-09-28T23:52:52.152Z,101238.90
2023-09-28T23:55:20.424Z,101231.89
2023-09-28T23:57:48.280Z,101230.46
